weather.gov     
National Weather Service

Terminal Aerodrome Forecast
NWS Homepage
This page is being discontinued on March 12, 2014.
The same data is available at this site. Please update your bookmarks.
Thank you, and we apologize for the inconvenience.
Please send an email to SR-SRH.Webmaster@noaa.gov with any concerns.


Current Version
Previous Version:    01  02  03  04  05  06  07  08  09  10  11  12  13  14  15  16  17  18  19  20  21  22  23  24  25  
[Printable]
793
FTUS46 KMTR 241100
TAFOAK
TAF
KOAK 241121Z 2412/2518 VRB03KT P6SM FEW008 SCT015
      TEMPO 2414/2416 BKN015
     FM241700 25005KT P6SM FEW015
     FM242000 27010KT P6SM FEW025 SCT040 BKN150
     FM242200 27015G25KT P6SM SCT025 BKN035 OVC150
     FM250200 27015KT P6SM -SHRA SCT015 BKN025
     FM250800 26010KT P6SM -SHRA SCT015 OVC025=


U.S. Dept. of Commerce
NOAA National Weather Service
1325 East West Highway
Silver Spring, MD 20910
E-mail: w-nws.webmaster@noaa.gov
Page last modified: May 16, 2007
NATIONAL WEATHER SERVICE: for Safety, for Work, for Fun - FOR LIFE